Time;durP1;ratioP1;P1;durP2;ratioP2;P2;SDS_P1;SDS_P2;PMS_P1;PMS_P2;Temp;Humidity;BMP_temperature;BMP_pressure;BME280_temperature;BME280_humidity;BME280_pressure;Samples;Min_cycle;Max_cycle;Signal;HPM_P1;HPM_P2
2022/07/25 00:00:09;;;;;;;13.70;5.90;;;;;;;;;;3348665;42;20157;-59
2022/07/25 00:02:35;;;;;;;11.00;5.97;;;;;;;;;;3352762;42;20093;-58
2022/07/25 00:05:02;;;;;;;17.20;5.60;;;;;;;;;;3353028;42;20464;-58
2022/07/25 00:07:28;;;;;;;13.63;5.80;;;;;;;;;;3353812;42;20080;-57
2022/07/25 00:09:54;;;;;;;12.77;6.22;;;;;;;;;;3355768;42;20574;-57
2022/07/25 00:12:20;;;;;;;11.70;5.40;;;;;;;;;;3344790;42;20088;-59
2022/07/25 00:14:46;;;;;;;11.75;5.60;;;;;;;;;;3342987;42;20092;-57
2022/07/25 00:17:12;;;;;;;9.70;5.50;;;;;;;;;;3353426;42;20112;-56
2022/07/25 00:19:38;;;;;;;10.98;5.38;;;;;;;;;;3355198;42;20084;-57
2022/07/25 00:22:05;;;;;;;10.50;5.07;;;;;;;;;;3353109;42;20535;-57
2022/07/25 00:24:31;;;;;;;9.55;4.57;;;;;;;;;;3346212;42;20174;-58
2022/07/25 00:26:57;;;;;;;9.27;4.90;;;;;;;;;;3354060;42;20103;-57
2022/07/25 00:29:23;;;;;;;9.47;5.00;;;;;;;;;;3351783;42;20088;-57
2022/07/25 00:31:48;;;;;;;8.75;4.38;;;;;;;;;;3352607;42;20089;-57
2022/07/25 00:34:14;;;;;;;8.23;4.22;;;;;;;;;;3353326;42;20095;-58
2022/07/25 00:36:40;;;;;;;9.07;4.43;;;;;;;;;;3351687;42;20089;-59
2022/07/25 00:39:06;;;;;;;10.37;4.53;;;;;;;;;;3350742;42;20089;-57
2022/07/25 00:41:32;;;;;;;9.07;4.70;;;;;;;;;;3352939;42;20288;-57
2022/07/25 00:43:58;;;;;;;13.00;6.03;;;;;;;;;;3354698;42;20198;-57
2022/07/25 00:46:24;;;;;;;10.00;4.78;;;;;;;;;;3352183;42;20123;-58
2022/07/25 00:48:50;;;;;;;11.23;5.00;;;;;;;;;;3348994;42;20088;-56
2022/07/25 00:51:16;;;;;;;11.32;5.20;;;;;;;;;;3352206;42;20611;-56
2022/07/25 00:53:42;;;;;;;11.32;5.50;;;;;;;;;;3352323;42;20088;-57
2022/07/25 00:56:08;;;;;;;11.52;5.18;;;;;;;;;;3351717;42;20123;-57
2022/07/25 00:58:34;;;;;;;12.03;5.23;;;;;;;;;;3356545;42;20162;-57
2022/07/25 01:01:00;;;;;;;14.75;5.75;;;;;;;;;;3346707;42;20092;-57
2022/07/25 01:03:26;;;;;;;11.65;5.13;;;;;;;;;;3353729;42;20088;-55
2022/07/25 01:05:52;;;;;;;11.38;5.30;;;;;;;;;;3339960;42;20152;-56
2022/07/25 01:08:19;;;;;;;16.25;5.28;;;;;;;;;;3354277;42;20200;-56
2022/07/25 01:10:45;;;;;;;12.03;5.07;;;;;;;;;;3354643;42;20136;-57
2022/07/25 01:13:11;;;;;;;16.70;5.40;;;;;;;;;;3345306;42;20092;-57
2022/07/25 01:15:37;;;;;;;12.82;4.82;;;;;;;;;;3352908;42;20124;-56
2022/07/25 01:18:03;;;;;;;14.18;5.40;;;;;;;;;;3354702;42;20124;-58
2022/07/25 01:20:29;;;;;;;9.07;4.47;;;;;;;;;;3357346;42;20096;-58
2022/07/25 01:22:56;;;;;;;13.05;4.97;;;;;;;;;;3344968;42;20550;-58
2022/07/25 01:25:22;;;;;;;10.35;5.07;;;;;;;;;;3356881;42;20212;-55
2022/07/25 01:27:48;;;;;;;9.73;4.80;;;;;;;;;;3354386;42;20577;-58
2022/07/25 01:30:14;;;;;;;9.93;5.00;;;;;;;;;;3352074;42;20144;-59
2022/07/25 01:32:40;;;;;;;10.57;5.10;;;;;;;;;;3354153;42;20136;-57
2022/07/25 01:35:07;;;;;;;9.50;4.63;;;;;;;;;;3354537;42;20151;-61
2022/07/25 01:37:33;;;;;;;9.15;4.68;;;;;;;;;;3354908;42;20555;-57
2022/07/25 01:39:59;;;;;;;9.82;4.55;;;;;;;;;;3349647;42;20159;-58
2022/07/25 01:42:25;;;;;;;11.00;5.47;;;;;;;;;;3358773;42;20115;-57
2022/07/25 01:44:51;;;;;;;9.43;5.20;;;;;;;;;;3341718;42;20498;-57
2022/07/25 01:47:17;;;;;;;10.30;5.68;;;;;;;;;;3353501;42;20117;-58
2022/07/25 01:49:43;;;;;;;10.68;5.80;;;;;;;;;;3355161;42;20088;-58
2022/07/25 01:52:09;;;;;;;9.93;5.25;;;;;;;;;;3351574;42;20136;-58
2022/07/25 01:54:35;;;;;;;11.57;4.47;;;;;;;;;;3341780;42;20581;-56
2022/07/25 01:57:01;;;;;;;12.43;6.07;;;;;;;;;;3355183;42;20480;-57
2022/07/25 01:59:27;;;;;;;13.73;7.15;;;;;;;;;;3349032;42;20085;-59
2022/07/25 02:01:53;;;;;;;15.93;8.20;;;;;;;;;;3353437;42;20155;-55
2022/07/25 02:04:19;;;;;;;21.88;8.88;;;;;;;;;;3350391;42;20124;-57
2022/07/25 02:06:45;;;;;;;21.05;9.73;;;;;;;;;;3354458;42;20624;-57
2022/07/25 02:09:11;;;;;;;11.80;6.78;;;;;;;;;;3353192;42;20084;-57
2022/07/25 02:11:37;;;;;;;12.47;5.43;;;;;;;;;;3354978;42;20104;-55
2022/07/25 02:14:03;;;;;;;13.25;6.32;;;;;;;;;;3354476;42;20080;-57
2022/07/25 02:16:29;;;;;;;21.85;8.60;;;;;;;;;;3349674;42;20100;-58
2022/07/25 02:18:55;;;;;;;20.55;8.55;;;;;;;;;;3356775;42;20566;-57
2022/07/25 02:21:21;;;;;;;20.07;8.93;;;;;;;;;;3353307;42;20134;-57
2022/07/25 02:23:46;;;;;;;23.55;9.60;;;;;;;;;;3352810;42;20088;-58
2022/07/25 02:26:12;;;;;;;17.88;8.25;;;;;;;;;;3353510;42;20108;-57
2022/07/25 02:28:39;;;;;;;22.27;8.32;;;;;;;;;;3355301;42;20157;-57
2022/07/25 02:31:05;;;;;;;15.77;7.47;;;;;;;;;;3354029;42;20094;-57
2022/07/25 02:33:31;;;;;;;16.80;7.38;;;;;;;;;;3352810;42;20096;-57
2022/07/25 02:35:56;;;;;;;16.58;6.60;;;;;;;;;;3353625;42;20096;-58
2022/07/25 02:38:22;;;;;;;15.68;6.22;;;;;;;;;;3354731;42;20081;-57
2022/07/25 02:40:49;;;;;;;14.37;5.80;;;;;;;;;;3343743;42;20139;-59
2022/07/25 02:43:15;;;;;;;11.57;5.28;;;;;;;;;;3354680;42;20085;-57
2022/07/25 02:45:41;;;;;;;11.23;5.60;;;;;;;;;;3345050;42;20092;-56
2022/07/25 02:48:07;;;;;;;14.60;6.82;;;;;;;;;;3354994;42;20103;-57
2022/07/25 02:50:33;;;;;;;13.90;6.03;;;;;;;;;;3349401;42;20545;-57
2022/07/25 02:52:59;;;;;;;15.45;6.10;;;;;;;;;;3355734;42;20089;-55
2022/07/25 02:55:25;;;;;;;17.60;6.60;;;;;;;;;;3354357;42;20087;-57
2022/07/25 02:57:51;;;;;;;13.80;7.18;;;;;;;;;;3352883;42;20072;-58
2022/07/25 03:00:18;;;;;;;16.60;8.07;;;;;;;;;;3354792;42;20096;-58
2022/07/25 03:02:44;;;;;;;21.27;9.27;;;;;;;;;;3356069;42;20084;-58
2022/07/25 03:05:11;;;;;;;18.85;8.10;;;;;;;;;;3349174;42;20083;-57
2022/07/25 03:07:37;;;;;;;13.23;6.50;;;;;;;;;;3356342;42;20139;-58
2022/07/25 03:10:04;;;;;;;22.40;9.17;;;;;;;;;;3355343;42;20089;-57
2022/07/25 03:12:31;;;;;;;19.40;7.00;;;;;;;;;;3354985;42;20088;-56
2022/07/25 03:14:58;;;;;;;20.40;9.38;;;;;;;;;;3349202;42;20207;-57
2022/07/25 03:17:24;;;;;;;17.70;9.15;;;;;;;;;;3354561;42;20626;-58
2022/07/25 03:19:50;;;;;;;11.07;5.70;;;;;;;;;;3353324;42;20468;-58
2022/07/25 03:22:16;;;;;;;16.03;7.37;;;;;;;;;;3357959;42;20565;-57
2022/07/25 03:24:42;;;;;;;17.92;7.70;;;;;;;;;;3357998;42;20092;-57
2022/07/25 03:27:08;;;;;;;22.85;10.63;;;;;;;;;;3352286;42;20092;-57
2022/07/25 03:29:34;;;;;;;23.65;11.43;;;;;;;;;;3351790;42;20153;-59
2022/07/25 03:32:00;;;;;;;21.17;9.40;;;;;;;;;;3350628;42;20105;-57
2022/07/25 03:34:26;;;;;;;17.40;8.50;;;;;;;;;;3351980;42;20292;-56
2022/07/25 03:36:52;;;;;;;18.48;9.75;;;;;;;;;;3353502;42;20667;-57
2022/07/25 03:39:19;;;;;;;17.23;8.88;;;;;;;;;;3345191;42;20142;-57
2022/07/25 03:41:45;;;;;;;16.80;8.73;;;;;;;;;;3353616;42;20089;-57
2022/07/25 03:44:12;;;;;;;15.38;8.18;;;;;;;;;;3351698;42;20135;-57
2022/07/25 03:46:38;;;;;;;16.13;8.60;;;;;;;;;;3342880;42;20524;-55
2022/07/25 03:49:04;;;;;;;15.52;8.45;;;;;;;;;;3348502;42;20077;-56
2022/07/25 03:51:30;;;;;;;15.18;8.48;;;;;;;;;;3351991;42;20459;-54
2022/07/25 03:54:01;;;;;;;16.58;9.38;;;;;;;;;;3349676;42;20144;-56
2022/07/25 03:56:34;;;;;;;17.37;9.07;;;;;;;;;;3342674;42;20104;-57
2022/07/25 03:59:00;;;;;;;17.35;9.38;;;;;;;;;;3352466;42;20088;-57
2022/07/25 04:01:26;;;;;;;16.48;9.63;;;;;;;;;;3350715;42;20088;-57
2022/07/25 04:03:52;;;;;;;14.70;9.52;;;;;;;;;;3352403;42;20468;-57
2022/07/25 04:06:18;;;;;;;19.33;10.37;;;;;;;;;;3343830;42;20153;-58
2022/07/25 04:08:44;;;;;;;20.30;10.43;;;;;;;;;;3357507;42;20144;-57
2022/07/25 04:11:10;;;;;;;26.63;12.57;;;;;;;;;;3355603;42;20523;-58
2022/07/25 04:13:36;;;;;;;21.85;11.90;;;;;;;;;;3349520;42;20594;-57
2022/07/25 04:16:02;;;;;;;27.80;14.73;;;;;;;;;;3353249;42;20084;-57
2022/07/25 04:18:28;;;;;;;35.27;15.13;;;;;;;;;;3352701;42;20089;-60
2022/07/25 04:20:55;;;;;;;29.48;14.52;;;;;;;;;;3344146;42;20554;-58
2022/07/25 04:23:21;;;;;;;24.40;12.45;;;;;;;;;;3353021;42;20587;-59
2022/07/25 04:25:47;;;;;;;24.33;14.20;;;;;;;;;;3343783;42;20615;-58
2022/07/25 04:28:12;;;;;;;22.40;12.80;;;;;;;;;;3352817;42;20483;-58
2022/07/25 04:30:38;;;;;;;23.08;13.00;;;;;;;;;;3354415;42;20468;-57
2022/07/25 04:33:04;;;;;;;25.60;13.50;;;;;;;;;;3354322;42;20172;-58
2022/07/25 04:35:30;;;;;;;20.87;12.20;;;;;;;;;;3351020;42;20551;-57
2022/07/25 04:37:56;;;;;;;21.08;11.68;;;;;;;;;;3351980;42;20139;-57
2022/07/25 04:40:22;;;;;;;19.17;11.45;;;;;;;;;;3354804;42;20140;-57
2022/07/25 04:42:48;;;;;;;19.13;10.25;;;;;;;;;;3341912;42;20096;-57
2022/07/25 04:45:14;;;;;;;18.53;10.47;;;;;;;;;;3348149;42;20477;-55
2022/07/25 04:47:40;;;;;;;16.90;10.70;;;;;;;;;;3345821;42;20089;-57
2022/07/25 04:50:09;;;;;;;17.20;10.52;;;;;;;;;;3333604;42;20101;-57
2022/07/25 04:52:35;;;;;;;18.48;10.27;;;;;;;;;;3343987;42;20359;-57
2022/07/25 04:55:02;;;;;;;16.63;9.73;;;;;;;;;;3353755;42;20318;-58
2022/07/25 04:57:29;;;;;;;17.90;10.15;;;;;;;;;;3354996;42;20136;-56
2022/07/25 04:59:55;;;;;;;20.45;13.38;;;;;;;;;;3348640;42;20551;-58
2022/07/25 05:02:21;;;;;;;16.38;11.07;;;;;;;;;;3354643;42;20154;-59
2022/07/25 05:04:47;;;;;;;18.45;10.63;;;;;;;;;;3350670;42;20205;-57
2022/07/25 05:07:13;;;;;;;18.03;10.60;;;;;;;;;;3350737;42;20093;-59
2022/07/25 05:09:39;;;;;;;17.98;11.77;;;;;;;;;;3357440;42;20089;-58
2022/07/25 05:12:05;;;;;;;18.60;11.23;;;;;;;;;;3360779;42;20177;-57
2022/07/25 05:14:31;;;;;;;18.35;11.10;;;;;;;;;;3360703;42;20084;-58
2022/07/25 05:16:57;;;;;;;16.87;10.50;;;;;;;;;;3361957;42;20139;-57
2022/07/25 05:19:23;;;;;;;23.42;10.95;;;;;;;;;;3360888;42;20084;-57
2022/07/25 05:21:49;;;;;;;20.83;12.20;;;;;;;;;;3359221;42;20262;-57
2022/07/25 05:24:15;;;;;;;19.75;11.73;;;;;;;;;;3360458;42;20087;-57
2022/07/25 05:26:41;;;;;;;16.40;10.00;;;;;;;;;;3361224;42;20561;-58
2022/07/25 05:29:07;;;;;;;16.52;9.93;;;;;;;;;;3360602;42;20543;-57
2022/07/25 05:31:33;;;;;;;14.52;9.90;;;;;;;;;;3359792;42;20103;-58
2022/07/25 05:33:59;;;;;;;15.17;9.83;;;;;;;;;;3347984;42;20077;-55
2022/07/25 05:36:25;;;;;;;15.75;10.35;;;;;;;;;;3356905;42;20612;-57
2022/07/25 05:38:51;;;;;;;17.92;10.60;;;;;;;;;;3348250;42;20085;-58
2022/07/25 05:41:17;;;;;;;17.48;10.40;;;;;;;;;;3352521;42;20551;-58
2022/07/25 05:43:45;;;;;;;17.07;10.60;;;;;;;;;;3353820;42;20144;-59
2022/07/25 05:46:11;;;;;;;18.35;9.77;;;;;;;;;;3352982;42;20088;-57
2022/07/25 05:48:37;;;;;;;17.90;10.35;;;;;;;;;;3357113;42;20207;-58
2022/07/25 05:51:03;;;;;;;18.60;10.27;;;;;;;;;;3352905;42;20089;-58
2022/07/25 05:53:29;;;;;;;23.77;12.70;;;;;;;;;;3354003;42;20077;-58
2022/07/25 05:55:55;;;;;;;21.98;13.25;;;;;;;;;;3353597;42;20582;-58
2022/07/25 05:58:21;;;;;;;24.23;12.98;;;;;;;;;;3356050;42;20183;-57
2022/07/25 06:00:49;;;;;;;21.85;13.20;;;;;;;;;;3353474;42;20686;-58
2022/07/25 06:03:17;;;;;;;21.65;12.27;;;;;;;;;;3350975;42;20092;-57
2022/07/25 06:05:44;;;;;;;20.87;12.03;;;;;;;;;;3354062;42;20095;-59
2022/07/25 06:08:10;;;;;;;19.90;12.02;;;;;;;;;;3354442;42;20092;-57
2022/07/25 06:10:36;;;;;;;21.15;11.45;;;;;;;;;;3354647;42;20138;-54
2022/07/25 06:13:02;;;;;;;23.08;12.93;;;;;;;;;;3356459;42;20511;-59
2022/07/25 06:15:29;;;;;;;21.03;12.63;;;;;;;;;;3349426;42;20198;-59
2022/07/25 06:17:55;;;;;;;19.75;12.15;;;;;;;;;;3356228;42;20089;-59
2022/07/25 06:20:21;;;;;;;21.92;12.23;;;;;;;;;;3354935;42;20088;-59
2022/07/25 06:22:49;;;;;;;22.92;12.73;;;;;;;;;;3355185;42;20101;-58
2022/07/25 06:25:15;;;;;;;22.58;12.95;;;;;;;;;;3358375;42;20094;-60
2022/07/25 06:27:41;;;;;;;24.02;13.18;;;;;;;;;;3343646;42;20100;-58
2022/07/25 06:30:07;;;;;;;24.05;13.05;;;;;;;;;;3361777;42;20163;-57
2022/07/25 06:32:33;;;;;;;24.85;13.18;;;;;;;;;;3361930;42;20143;-62
2022/07/25 06:34:59;;;;;;;24.85;14.10;;;;;;;;;;3363097;42;20092;-57
2022/07/25 06:37:25;;;;;;;25.95;14.50;;;;;;;;;;3362374;42;20598;-58
2022/07/25 06:39:51;;;;;;;24.13;13.93;;;;;;;;;;3362007;42;20583;-58
2022/07/25 06:42:17;;;;;;;27.40;14.60;;;;;;;;;;3363519;42;20080;-59
2022/07/25 06:44:43;;;;;;;24.10;13.15;;;;;;;;;;3350317;42;20100;-58
2022/07/25 06:47:11;;;;;;;20.47;12.10;;;;;;;;;;3354390;42;20092;-57
2022/07/25 06:49:38;;;;;;;21.55;12.90;;;;;;;;;;3352289;42;20092;-58
2022/07/25 06:52:05;;;;;;;22.50;12.30;;;;;;;;;;3352089;42;20088;-54
2022/07/25 06:54:31;;;;;;;18.83;12.15;;;;;;;;;;3358004;42;20568;-57
2022/07/25 06:56:57;;;;;;;20.60;13.23;;;;;;;;;;3354420;42;20605;-59
2022/07/25 06:59:23;;;;;;;21.60;12.57;;;;;;;;;;3353980;42;20351;-58
2022/07/25 07:01:49;;;;;;;21.15;11.70;;;;;;;;;;3343959;42;20099;-58
2022/07/25 07:04:15;;;;;;;18.95;12.48;;;;;;;;;;3352129;42;20135;-58
2022/07/25 07:06:41;;;;;;;18.83;12.50;;;;;;;;;;3353120;42;20103;-57
2022/07/25 07:09:07;;;;;;;20.45;12.35;;;;;;;;;;3353276;42;20127;-58
2022/07/25 07:11:33;;;;;;;20.42;12.43;;;;;;;;;;3349410;42;20085;-56
2022/07/25 07:14:01;;;;;;;19.95;12.48;;;;;;;;;;3345000;42;20512;-58
2022/07/25 07:16:28;;;;;;;20.40;12.77;;;;;;;;;;3354160;42;20084;-59
2022/07/25 07:18:54;;;;;;;18.37;12.07;;;;;;;;;;3353480;42;20096;-58
2022/07/25 07:21:20;;;;;;;18.98;12.02;;;;;;;;;;3352915;42;20088;-58
2022/07/25 07:23:46;;;;;;;17.85;12.40;;;;;;;;;;3353835;42;20081;-57
2022/07/25 07:26:12;;;;;;;19.88;12.00;;;;;;;;;;3350168;42;20095;-58
2022/07/25 07:28:38;;;;;;;20.33;12.43;;;;;;;;;;3358005;42;20559;-58
2022/07/25 07:31:04;;;;;;;19.23;12.52;;;;;;;;;;3352609;42;20654;-58
2022/07/25 07:33:32;;;;;;;20.23;12.45;;;;;;;;;;3349329;42;20597;-59
2022/07/25 07:35:58;;;;;;;19.73;13.00;;;;;;;;;;3356497;42;20091;-58
2022/07/25 07:38:24;;;;;;;20.03;13.03;;;;;;;;;;3346395;42;20077;-57
2022/07/25 07:40:51;;;;;;;20.30;13.77;;;;;;;;;;3350415;42;20099;-57
2022/07/25 07:43:17;;;;;;;19.80;13.43;;;;;;;;;;3352252;42;20578;-58
2022/07/25 07:45:43;;;;;;;23.67;14.05;;;;;;;;;;3355993;42;20089;-57
2022/07/25 07:48:09;;;;;;;22.80;14.55;;;;;;;;;;3349112;42;20159;-59
2022/07/25 07:50:35;;;;;;;22.40;16.07;;;;;;;;;;3351853;42;20112;-55
2022/07/25 07:53:01;;;;;;;23.05;15.43;;;;;;;;;;3351740;42;20076;-58
2022/07/25 07:58:14;;;;;;;29.77;14.80;;;;;;;;;;3347496;42;20084;-58
2022/07/25 08:00:40;;;;;;;23.80;15.23;;;;;;;;;;3357595;42;20100;-57
2022/07/25 08:03:07;;;;;;;26.98;16.25;;;;;;;;;;3345168;42;20093;-58
2022/07/25 08:05:41;;;;;;;27.08;17.63;;;;;;;;;;3346930;42;20099;-59
2022/07/25 08:08:08;;;;;;;26.73;16.90;;;;;;;;;;3350704;42;20655;-57
2022/07/25 08:10:35;;;;;;;25.30;16.10;;;;;;;;;;3344059;42;20084;-58
2022/07/25 08:13:22;;;;;;;26.03;15.93;;;;;;;;;;3357405;42;20092;-58
2022/07/25 08:15:50;;;;;;;24.88;15.23;;;;;;;;;;3350701;42;20097;-57
2022/07/25 08:18:16;;;;;;;24.35;16.73;;;;;;;;;;3354768;42;20093;-57
2022/07/25 08:20:42;;;;;;;26.38;16.75;;;;;;;;;;3354712;42;20523;-58
2022/07/25 08:23:09;;;;;;;26.70;16.47;;;;;;;;;;3357353;42;20626;-57
2022/07/25 08:25:35;;;;;;;27.23;16.88;;;;;;;;;;3351018;42;20770;-57
2022/07/25 08:28:02;;;;;;;25.23;16.58;;;;;;;;;;3352881;42;20594;-57
2022/07/25 08:30:28;;;;;;;27.02;16.50;;;;;;;;;;3353954;42;20551;-55
2022/07/25 08:33:00;;;;;;;26.70;16.00;;;;;;;;;;3344463;42;20085;-58
2022/07/25 08:35:26;;;;;;;25.40;15.30;;;;;;;;;;3355778;42;20543;-59
2022/07/25 08:37:52;;;;;;;27.60;15.40;;;;;;;;;;3348330;42;20081;-58
2022/07/25 08:40:19;;;;;;;29.15;16.75;;;;;;;;;;3355458;42;20503;-59
2022/07/25 08:42:45;;;;;;;28.17;16.42;;;;;;;;;;3353054;42;20136;-59
2022/07/25 08:45:21;;;;;;;26.52;15.77;;;;;;;;;;3343198;42;20077;-61
2022/07/25 08:47:48;;;;;;;27.40;15.27;;;;;;;;;;3344491;42;20147;-57
2022/07/25 08:50:16;;;;;;;23.70;15.35;;;;;;;;;;3355283;42;20096;-58
2022/07/25 08:52:44;;;;;;;26.77;15.98;;;;;;;;;;3353839;42;20553;-58
2022/07/25 08:55:13;;;;;;;24.98;14.90;;;;;;;;;;3343458;42;20847;-58
2022/07/25 08:57:42;;;;;;;26.50;17.27;;;;;;;;;;3352189;42;20093;-59
2022/07/25 09:00:10;;;;;;;25.37;15.13;;;;;;;;;;3351536;42;20160;-56
2022/07/25 09:02:36;;;;;;;23.77;16.10;;;;;;;;;;3351749;42;20137;-58
2022/07/25 09:05:03;;;;;;;25.48;15.38;;;;;;;;;;3351624;42;20603;-57
2022/07/25 09:07:33;;;;;;;23.67;14.00;;;;;;;;;;3354922;42;20633;-59
2022/07/25 09:10:20;;;;;;;22.67;14.27;;;;;;;;;;3352983;42;20171;-58
2022/07/25 09:12:59;;;;;;;23.70;13.80;;;;;;;;;;3352731;42;20164;-58
2022/07/25 09:15:33;;;;;;;24.67;14.75;;;;;;;;;;3351889;42;20111;-59
2022/07/25 09:18:02;;;;;;;26.70;14.45;;;;;;;;;;3341643;42;20100;-58
2022/07/25 09:20:42;;;;;;;23.65;14.05;;;;;;;;;;3350746;42;20101;-58
2022/07/25 09:23:09;;;;;;;23.27;13.35;;;;;;;;;;3357076;42;20084;-59
2022/07/25 09:25:35;;;;;;;21.93;13.93;;;;;;;;;;3341091;42;20555;-59
2022/07/25 09:28:15;;;;;;;22.85;13.30;;;;;;;;;;3355772;42;20084;-58
2022/07/25 09:30:54;;;;;;;20.67;13.68;;;;;;;;;;3334899;42;20144;-58
2022/07/25 09:33:24;;;;;;;21.70;13.95;;;;;;;;;;3352658;42;20100;-57
2022/07/25 09:35:50;;;;;;;24.27;13.95;;;;;;;;;;3353473;42;20093;-58
2022/07/25 09:38:16;;;;;;;26.03;14.07;;;;;;;;;;3353293;42;20944;-58
2022/07/25 09:41:00;;;;;;;23.80;13.90;;;;;;;;;;3352860;42;20122;-56
2022/07/25 09:43:42;;;;;;;23.25;14.85;;;;;;;;;;3348809;42;20092;-56
2022/07/25 09:46:09;;;;;;;23.10;14.32;;;;;;;;;;3348349;42;20123;-60
2022/07/25 09:48:35;;;;;;;27.10;14.00;;;;;;;;;;3351433;42;20170;-58
2022/07/25 09:51:02;;;;;;;23.00;14.48;;;;;;;;;;3352300;42;20095;-59
2022/07/25 09:53:28;;;;;;;23.52;14.20;;;;;;;;;;3352974;42;20144;-58
2022/07/25 09:55:55;;;;;;;24.63;14.05;;;;;;;;;;3352174;42;20092;-59
2022/07/25 09:58:23;;;;;;;23.08;13.48;;;;;;;;;;3351788;42;20093;-60
2022/07/25 10:00:49;;;;;;;21.70;13.13;;;;;;;;;;3352424;42;20103;-58
2022/07/25 10:03:40;;;;;;;22.27;14.35;;;;;;;;;;3345573;42;20084;-58
2022/07/25 10:06:12;;;;;;;20.85;11.77;;;;;;;;;;3341134;42;20107;-56
2022/07/25 10:08:38;;;;;;;17.42;11.00;;;;;;;;;;3344786;42;20128;-58
2022/07/25 10:11:05;;;;;;;18.73;12.25;;;;;;;;;;3351275;42;20088;-58
2022/07/25 10:13:33;;;;;;;21.70;11.80;;;;;;;;;;3342507;42;20142;-58
2022/07/25 10:15:59;;;;;;;20.77;13.30;;;;;;;;;;3349194;42;20127;-61
2022/07/25 10:18:26;;;;;;;22.92;13.80;;;;;;;;;;3359072;42;20115;-57
2022/07/25 10:20:55;;;;;;;21.95;12.25;;;;;;;;;;3358309;42;20547;-58
2022/07/25 10:23:23;;;;;;;24.35;13.13;;;;;;;;;;3347934;42;20559;-58
2022/07/25 10:26:14;;;;;;;18.47;11.67;;;;;;;;;;3354325;42;20231;-58
2022/07/25 10:28:50;;;;;;;19.60;11.63;;;;;;;;;;3355381;42;20582;-59
2022/07/25 10:31:35;;;;;;;18.73;12.20;;;;;;;;;;3355186;42;20089;-57
2022/07/25 10:34:05;;;;;;;17.80;11.38;;;;;;;;;;3355076;42;20559;-58
2022/07/25 10:36:54;;;;;;;22.30;12.57;;;;;;;;;;3353008;42;20119;-59
2022/07/25 10:39:21;;;;;;;21.00;12.53;;;;;;;;;;3354438;42;20265;-58
2022/07/25 10:41:52;;;;;;;23.83;13.27;;;;;;;;;;3345322;42;20108;-57
2022/07/25 10:44:18;;;;;;;22.23;13.20;;;;;;;;;;3356773;42;20555;-58
2022/07/25 10:46:44;;;;;;;24.25;12.63;;;;;;;;;;3349897;42;20092;-58
2022/07/25 10:49:20;;;;;;;21.55;12.07;;;;;;;;;;3355881;42;20107;-58
2022/07/25 10:51:57;;;;;;;20.63;11.97;;;;;;;;;;3345123;42;20092;-58
2022/07/25 10:54:23;;;;;;;19.27;11.05;;;;;;;;;;3341459;42;20090;-59
2022/07/25 10:56:56;;;;;;;18.98;11.25;;;;;;;;;;3357044;42;20084;-59
2022/07/25 10:59:35;;;;;;;22.02;11.07;;;;;;;;;;3354855;42;20100;-60
2022/07/25 11:02:02;;;;;;;16.88;10.35;;;;;;;;;;3353073;42;20265;-59
2022/07/25 11:04:28;;;;;;;18.43;9.90;;;;;;;;;;3342544;42;20093;-59
2022/07/25 11:06:54;;;;;;;17.63;10.15;;;;;;;;;;3354012;42;20092;-57
2022/07/25 11:09:25;;;;;;;19.95;11.05;;;;;;;;;;3355140;42;20180;-59
2022/07/25 11:11:52;;;;;;;16.63;10.15;;;;;;;;;;3349910;42;20101;-60
2022/07/25 11:14:41;;;;;;;16.03;10.33;;;;;;;;;;3355422;42;20207;-61
2022/07/25 11:17:17;;;;;;;20.67;10.60;;;;;;;;;;3348923;42;20599;-61
2022/07/25 11:19:44;;;;;;;15.52;10.40;;;;;;;;;;3354510;42;20126;-58
2022/07/25 11:22:10;;;;;;;18.67;10.68;;;;;;;;;;3343034;42;20080;-56
2022/07/25 11:24:43;;;;;;;18.70;10.30;;;;;;;;;;3356189;42;20102;-57
2022/07/25 11:27:31;;;;;;;19.80;10.67;;;;;;;;;;3353144;42;20140;-58
2022/07/25 11:30:11;;;;;;;17.75;10.65;;;;;;;;;;3345484;42;20084;-58
2022/07/25 11:32:40;;;;;;;16.80;9.45;;;;;;;;;;3351055;42;20092;-59
2022/07/25 11:35:07;;;;;;;16.92;8.63;;;;;;;;;;3354400;42;20132;-58
2022/07/25 11:37:34;;;;;;;16.40;8.23;;;;;;;;;;3337049;42;20599;-60
2022/07/25 11:40:00;;;;;;;16.10;8.37;;;;;;;;;;3340649;42;20115;-57
2022/07/25 11:42:27;;;;;;;14.00;7.88;;;;;;;;;;3344260;42;20084;-56
2022/07/25 11:44:53;;;;;;;13.02;7.75;;;;;;;;;;3345487;42;20092;-56
2022/07/25 11:47:22;;;;;;;11.55;6.72;;;;;;;;;;3351780;42;20506;-59
2022/07/25 11:49:49;;;;;;;9.30;5.32;;;;;;;;;;3358558;42;20212;-57
2022/07/25 11:52:21;;;;;;;8.50;4.70;;;;;;;;;;3353721;42;20100;-57
2022/07/25 11:55:03;;;;;;;8.98;4.60;;;;;;;;;;3352197;42;20111;-60
2022/07/25 11:57:31;;;;;;;12.00;5.22;;;;;;;;;;3348164;42;20111;-68
2022/07/25 11:59:59;;;;;;;8.77;4.60;;;;;;;;;;3354625;42;20151;-64
2022/07/25 12:02:32;;;;;;;8.35;4.47;;;;;;;;;;3346093;42;20160;-54
2022/07/25 12:05:03;;;;;;;8.40;4.50;;;;;;;;;;3349559;42;20151;-54
2022/07/25 12:07:48;;;;;;;32.92;5.05;;;;;;;;;;3353499;42;20111;-58
2022/07/25 12:10:18;;;;;;;9.13;3.92;;;;;;;;;;3351834;42;20114;-62
2022/07/25 12:12:48;;;;;;;8.98;4.10;;;;;;;;;;3351600;42;20088;-56
2022/07/25 12:15:16;;;;;;;9.00;4.10;;;;;;;;;;3354377;42;20085;-55
2022/07/25 12:17:42;;;;;;;13.13;4.17;;;;;;;;;;3353468;42;20551;-58
2022/07/25 12:20:16;;;;;;;8.35;4.30;;;;;;;;;;3351894;42;20946;-56
2022/07/25 12:22:43;;;;;;;8.95;4.38;;;;;;;;;;3357607;42;20098;-54
2022/07/25 12:25:09;;;;;;;9.65;4.20;;;;;;;;;;3350181;42;20166;-59
2022/07/25 12:27:35;;;;;;;9.15;4.18;;;;;;;;;;3342650;42;20519;-58
2022/07/25 12:30:02;;;;;;;11.53;4.60;;;;;;;;;;3352242;42;20144;-57
2022/07/25 12:32:28;;;;;;;7.25;3.83;;;;;;;;;;3353562;42;20097;-56
2022/07/25 12:34:53;;;;;;;6.90;3.67;;;;;;;;;;3355306;42;20088;-56
2022/07/25 12:37:20;;;;;;;9.32;4.00;;;;;;;;;;3357562;42;20609;-57
2022/07/25 12:39:47;;;;;;;8.00;3.63;;;;;;;;;;3352084;42;20606;-56
2022/07/25 12:42:12;;;;;;;8.65;4.00;;;;;;;;;;3351717;42;20123;-58
2022/07/25 12:44:38;;;;;;;7.57;4.00;;;;;;;;;;3353474;42;20091;-58
2022/07/25 12:47:05;;;;;;;8.85;3.88;;;;;;;;;;3350110;42;20099;-57
2022/07/25 12:49:31;;;;;;;8.15;4.10;;;;;;;;;;3355843;42;20096;-54
2022/07/25 12:51:57;;;;;;;7.90;3.80;;;;;;;;;;3342489;42;20088;-57
2022/07/25 12:54:23;;;;;;;7.72;3.97;;;;;;;;;;3354033;42;20080;-54
2022/07/25 12:56:49;;;;;;;9.00;3.88;;;;;;;;;;3354574;42;20151;-58
2022/07/25 12:59:15;;;;;;;6.60;3.30;;;;;;;;;;3347116;42;20096;-58
2022/07/25 13:01:41;;;;;;;6.90;3.40;;;;;;;;;;3343891;42;20144;-56
2022/07/25 13:04:08;;;;;;;7.78;3.70;;;;;;;;;;3354546;42;20088;-59
2022/07/25 13:06:35;;;;;;;7.78;3.70;;;;;;;;;;3353062;42;20141;-56
2022/07/25 13:09:01;;;;;;;7.72;3.42;;;;;;;;;;3355364;42;20170;-58
2022/07/25 13:11:27;;;;;;;7.73;3.53;;;;;;;;;;3352438;42;20105;-56
2022/07/25 13:13:53;;;;;;;16.45;12.20;;;;;;;;;;3348761;42;20097;-54
2022/07/25 13:16:19;;;;;;;7.72;4.18;;;;;;;;;;3342076;42;20092;-57
2022/07/25 13:18:45;;;;;;;9.32;3.72;;;;;;;;;;3350628;42;20088;-56
2022/07/25 13:21:11;;;;;;;7.83;3.63;;;;;;;;;;3350112;42;20076;-57
2022/07/25 13:23:38;;;;;;;10.32;3.78;;;;;;;;;;3350724;42;20559;-57
2022/07/25 13:26:04;;;;;;;7.97;3.90;;;;;;;;;;3351061;42;20179;-58
2022/07/25 13:28:30;;;;;;;9.75;3.75;;;;;;;;;;3354616;42;20105;-58
2022/07/25 13:30:56;;;;;;;7.05;3.90;;;;;;;;;;3345544;42;20101;-62
2022/07/25 13:33:22;;;;;;;8.53;3.80;;;;;;;;;;3350343;42;20154;-57
2022/07/25 13:35:48;;;;;;;6.82;3.70;;;;;;;;;;3351064;42;20088;-58
2022/07/25 13:38:14;;;;;;;9.02;3.90;;;;;;;;;;3347942;42;20080;-57
2022/07/25 13:40:42;;;;;;;8.07;3.75;;;;;;;;;;3356776;42;20110;-56
2022/07/25 13:43:09;;;;;;;11.30;4.00;;;;;;;;;;3340011;42;20095;-56
2022/07/25 13:45:35;;;;;;;7.82;4.00;;;;;;;;;;3354621;42;20096;-57
2022/07/25 13:48:01;;;;;;;9.73;4.57;;;;;;;;;;3352718;42;20127;-57
2022/07/25 13:50:27;;;;;;;7.43;4.10;;;;;;;;;;3351556;42;20103;-54
2022/07/25 13:52:56;;;;;;;9.13;4.32;;;;;;;;;;3351915;42;20080;-56
2022/07/25 13:55:25;;;;;;;8.43;4.20;;;;;;;;;;3353025;42;20092;-55
2022/07/25 13:57:51;;;;;;;9.05;4.43;;;;;;;;;;3341625;42;20159;-55
2022/07/25 14:00:17;;;;;;;9.02;4.78;;;;;;;;;;3339617;42;20100;-53
2022/07/25 14:02:43;;;;;;;8.63;4.50;;;;;;;;;;3353289;42;20162;-57
2022/07/25 14:05:09;;;;;;;8.63;4.53;;;;;;;;;;3352407;42;20576;-58
2022/07/25 14:07:35;;;;;;;9.02;4.47;;;;;;;;;;3354472;42;20096;-54
2022/07/25 14:10:02;;;;;;;9.32;4.40;;;;;;;;;;3359690;42;20084;-56
2022/07/25 14:12:28;;;;;;;8.70;4.53;;;;;;;;;;3360882;42;20083;-57
2022/07/25 14:14:54;;;;;;;8.70;4.85;;;;;;;;;;3353047;42;20132;-55
2022/07/25 14:17:20;;;;;;;9.03;4.80;;;;;;;;;;3353119;42;20122;-57
2022/07/25 14:19:46;;;;;;;9.70;5.03;;;;;;;;;;3354684;42;20153;-56
2022/07/25 14:22:12;;;;;;;8.52;4.68;;;;;;;;;;3348836;42;20096;-60
2022/07/25 14:24:38;;;;;;;10.10;4.90;;;;;;;;;;3359423;42;20854;-59
2022/07/25 14:27:04;;;;;;;11.30;4.97;;;;;;;;;;3362742;42;20240;-59
2022/07/25 14:29:30;;;;;;;11.63;4.70;;;;;;;;;;3354140;42;20158;-59